Date,TemperatureHighF,TemperatureAvgF,TemperatureLowF,DewpointHighF,DewpointAvgF,DewpointLowF,HumidityHigh,HumidityAvg,HumidityLow,PressureMaxIn,PressureMinIn,WindSpeedMaxMPH,WindSpeedAvgMPH,GustSpeedMaxMPH,PrecipitationSumIn
2012-12-1,60.8,57.6,55.2,59.5,56.2,54.1,97,95,92,29.97,29.79,19,3,19,0.56
2012-12-2,61.5,54.0,42.1,59.4,50.5,41.4,97,89,62,30.07,29.63,24,3,33,1.38
2012-12-3,60.8,49.0,37.2,50.9,45.1,36.7,98,87,66,30.17,30.05,11,0,11,0.01
2012-12-4,58.1,54.3,51.1,52.7,50.8,48.2,96,88,76,30.19,30.09,13,2,13,0.08
2012-12-5,61.2,57.8,53.6,59.2,56.6,52.5,97,96,92,30.12,30.04,10,1,11,0.46
2012-12-6,61.2,53.1,41.2,55.6,49.9,40.5,98,90,68,30.10,30.02,7,1,10,0.01
2012-12-7,63.5,46.5,35.4,48.2,42.1,34.9,98,87,53,30.12,30.02,4,0,5,0.01
2012-12-8,61.5,44.9,33.3,47.3,40.7,32.5,98,87,56,30.09,29.99,4,0,6,0.01
2012-12-9,72.3,52.6,37.6,48.6,42.7,36.5,97,73,38,30.14,30.05,11,1,18,0.01
2012-12-10,69.4,50.7,38.7,52.0,45.1,37.6,97,83,51,30.19,30.06,4,0,6,0.00
2012-12-11,55.2,46.2,36.3,48.9,43.7,35.6,97,91,76,30.06,29.79,6,1,9,0.02
2012-12-12,54.7,44.4,34.3,46.8,40.6,33.3,98,87,56,29.86,29.77,8,1,11,0.01
2012-12-13,55.6,40.3,30.4,41.0,34.4,29.5,97,83,44,29.90,29.80,9,1,12,0.01
2012-12-14,53.8,40.7,32.4,42.1,36.6,31.1,97,87,55,30.00,29.78,10,0,11,0.00
2012-12-15,45.7,39.6,31.5,42.1,37.9,30.4,97,93,85,30.04,29.94,16,2,16,0.14
2012-12-16,52.0,47.0,43.5,51.1,45.7,41.7,97,95,92,30.05,29.94,12,2,15,0.19
2012-12-17,57.2,50.6,36.7,54.3,47.5,35.6,98,90,67,30.00,29.91,7,2,17,0.33
2012-12-18,50.7,39.0,29.5,39.0,31.7,28.6,97,78,43,30.16,29.96,21,2,21,0.01
2012-12-19,53.1,37.8,26.8,32.0,28.9,25.5,96,73,37,30.27,30.16,9,1,11,0.00
2012-12-20,54.1,47.4,37.0,45.1,36.4,27.1,91,66,53,30.17,29.91,16,6,19,0.08
2012-12-21,52.0,49.0,46.9,50.4,47.2,43.9,97,93,89,29.91,29.77,19,6,26,1.78
2012-12-22,54.7,49.5,45.7,50.5,45.8,42.3,96,87,65,30.00,29.75,15,2,24,0.78
2012-12-23,57.4,50.5,41.2,55.2,48.8,40.5,97,94,86,29.99,29.77,25,4,27,1.10
2012-12-24,56.3,44.4,36.3,47.3,41.4,35.8,98,90,65,30.16,29.96,5,0,6,0.02
2012-12-25,45.3,43.0,38.3,44.1,41.3,37.6,97,94,78,30.11,29.69,18,2,25,1.10
2012-12-26,55.2,45.0,37.9,46.8,41.5,37.4,98,88,63,30.06,29.80,16,2,18,0.06
2012-12-27,56.5,44.8,36.9,40.8,38.8,35.6,96,81,49,30.13,30.05,7,1,7,0.00
2012-12-28,50.2,41.9,32.2,39.6,36.7,31.1,97,83,62,30.14,29.99,13,2,14,0.00
2012-12-29,56.7,46.3,36.7,40.5,37.7,35.1,95,74,47,30.04,29.96,16,2,19,0.01
2012-12-30,56.7,43.3,30.9,41.4,34.7,28.4,97,74,43,30.14,30.01,10,1,10,0.00
2012-12-31,52.9,39.9,28.4,41.9,33.5,27.0,96,80,40,30.25,30.14,5,1,9,0.00